createdAt,value
2022-10-19T00:01:12.550Z,28.03
2022-10-19T00:03:39.577Z,29.23
2022-10-19T00:06:13.563Z,30.20
2022-10-19T00:08:40.348Z,30.90
2022-10-19T00:11:07.594Z,27.08
2022-10-19T00:13:34.313Z,25.73
2022-10-19T00:16:00.799Z,25.55
2022-10-19T00:18:27.164Z,25.42
2022-10-19T00:21:01.829Z,26.95
2022-10-19T00:23:28.173Z,29.35
2022-10-19T00:25:56.044Z,24.53
2022-10-19T00:28:22.447Z,33.13
2022-10-19T00:33:20.631Z,30.38
2022-10-19T00:35:48.339Z,32.50
2022-10-19T00:38:14.748Z,25.93
2022-10-19T00:40:41.135Z,25.05
2022-10-19T00:43:19.429Z,27.60
2022-10-19T00:45:46.342Z,31.30
2022-10-19T00:48:17.044Z,25.45
2022-10-19T00:50:45.109Z,27.63
2022-10-19T00:53:12.314Z,29.40
2022-10-19T00:55:39.661Z,29.73
2022-10-19T00:58:06.288Z,28.02
2022-10-19T01:00:32.820Z,29.20
2022-10-19T01:05:30.746Z,27.08
2022-10-19T01:07:57.480Z,22.55
2022-10-19T01:10:37.817Z,20.85
2022-10-19T01:13:18.193Z,24.33
2022-10-19T01:18:39.649Z,22.83
2022-10-19T01:21:20.917Z,25.05
2022-10-19T01:24:40.571Z,27.55
2022-10-19T01:27:25.471Z,29.02
2022-10-19T01:30:02.615Z,29.53
2022-10-19T01:32:40.623Z,25.33
2022-10-19T01:35:24.275Z,26.05
2022-10-19T01:38:14.765Z,26.25
2022-10-19T01:40:54.091Z,29.90
2022-10-19T01:43:49.441Z,25.37
2022-10-19T01:46:27.251Z,29.70
2022-10-19T01:49:09.750Z,23.27
2022-10-19T01:51:42.871Z,23.50
2022-10-19T01:54:13.231Z,26.67
2022-10-19T01:56:42.521Z,24.37
2022-10-19T01:59:11.416Z,24.00
2022-10-19T02:01:42.040Z,26.40
2022-10-19T02:04:10.057Z,22.45
2022-10-19T02:06:37.052Z,24.15
2022-10-19T02:09:03.723Z,20.30
2022-10-19T02:11:31.565Z,21.67
2022-10-19T02:14:02.802Z,27.10
2022-10-19T02:16:42.153Z,27.20
2022-10-19T02:19:12.334Z,20.10
2022-10-19T02:21:39.546Z,19.87
2022-10-19T02:24:06.053Z,18.23
2022-10-19T02:26:33.005Z,21.20
2022-10-19T02:28:59.767Z,22.90
2022-10-19T02:31:26.517Z,25.42
2022-10-19T02:33:53.619Z,17.90
2022-10-19T02:36:20.211Z,20.10
2022-10-19T02:38:46.794Z,19.65
2022-10-19T02:41:27.179Z,23.17
2022-10-19T02:43:58.333Z,17.67
2022-10-19T02:46:46.277Z,23.87
2022-10-19T02:49:13.461Z,19.60
2022-10-19T02:51:55.029Z,25.27
2022-10-19T02:54:21.501Z,23.00
2022-10-19T02:56:48.081Z,18.83
2022-10-19T02:59:14.469Z,17.80
2022-10-19T03:01:40.856Z,23.88
2022-10-19T03:04:07.293Z,20.98
2022-10-19T03:06:33.808Z,17.58
2022-10-19T03:09:00.250Z,21.17
2022-10-19T03:11:26.685Z,20.97
2022-10-19T03:13:53.101Z,19.20
2022-10-19T03:16:19.508Z,19.35
2022-10-19T03:18:50.993Z,25.27
2022-10-19T03:21:18.237Z,17.05
2022-10-19T03:23:44.624Z,19.20
2022-10-19T03:26:14.661Z,21.25
2022-10-19T03:28:41.234Z,19.85
2022-10-19T03:31:07.683Z,21.27
2022-10-19T03:33:34.092Z,18.13
2022-10-19T03:36:24.053Z,25.23
2022-10-19T03:38:52.039Z,20.10
2022-10-19T03:41:20.391Z,20.48
2022-10-19T03:43:47.192Z,24.00
2022-10-19T03:46:14.045Z,24.38
2022-10-19T03:48:41.004Z,22.40
2022-10-19T03:51:10.103Z,22.13
2022-10-19T03:53:37.000Z,24.33
2022-10-19T03:56:10.805Z,20.45
2022-10-19T03:58:38.639Z,24.90
2022-10-19T04:01:12.306Z,22.13
2022-10-19T04:03:39.018Z,22.70
2022-10-19T04:06:11.023Z,27.15
2022-10-19T04:08:37.558Z,27.33
2022-10-19T04:11:10.958Z,31.15
2022-10-19T04:13:37.401Z,32.83
2022-10-19T04:16:04.346Z,31.80
2022-10-19T04:18:30.841Z,33.65
2022-10-19T04:21:02.839Z,30.52
2022-10-19T04:23:32.599Z,31.83
2022-10-19T04:26:06.164Z,29.03
2022-10-19T04:28:33.553Z,29.50
2022-10-19T04:31:04.946Z,29.33
2022-10-19T04:33:32.409Z,25.30
2022-10-19T04:36:03.145Z,26.40
2022-10-19T04:38:30.084Z,27.87
2022-10-19T04:40:56.526Z,23.98
2022-10-19T04:43:23.059Z,25.45
2022-10-19T04:45:49.486Z,24.02
2022-10-19T04:48:15.902Z,24.80
2022-10-19T04:50:42.292Z,22.03
2022-10-19T04:53:08.762Z,27.33
2022-10-19T04:55:40.643Z,24.65
2022-10-19T04:58:07.032Z,25.65
2022-10-19T05:00:33.505Z,22.40
2022-10-19T05:02:59.974Z,23.27
2022-10-19T05:05:26.401Z,21.35
2022-10-19T05:07:52.810Z,19.42
2022-10-19T05:10:19.244Z,22.35
2022-10-19T05:12:45.667Z,21.83
2022-10-19T05:15:12.148Z,19.83
2022-10-19T05:17:38.591Z,23.08
2022-10-19T05:20:05.517Z,19.55
2022-10-19T05:22:31.970Z,21.00
2022-10-19T05:24:58.403Z,22.00
2022-10-19T05:27:24.858Z,20.13
2022-10-19T05:29:51.255Z,21.02
2022-10-19T05:32:17.691Z,17.77
2022-10-19T05:34:44.103Z,20.02
2022-10-19T05:37:10.490Z,20.25
2022-10-19T05:39:36.926Z,18.57
2022-10-19T05:42:03.485Z,21.02
2022-10-19T05:44:29.962Z,22.92
2022-10-19T05:46:56.400Z,19.48
2022-10-19T05:49:23.098Z,14.80
2022-10-19T05:51:50.136Z,16.93
2022-10-19T05:54:17.173Z,16.13
2022-10-19T05:56:43.943Z,17.08
2022-10-19T05:59:15.266Z,14.68
2022-10-19T06:01:41.687Z,15.75
2022-10-19T06:04:08.111Z,18.50
2022-10-19T06:06:34.558Z,19.85
2022-10-19T06:09:00.953Z,16.95
2022-10-19T06:11:30.534Z,15.60
2022-10-19T06:13:59.521Z,19.23
2022-10-19T06:16:27.513Z,17.03
2022-10-19T06:18:54.933Z,19.85
2022-10-19T06:21:24.715Z,16.90
2022-10-19T06:23:56.010Z,18.80
2022-10-19T06:26:23.317Z,14.35
2022-10-19T06:28:50.679Z,14.77
2022-10-19T06:31:17.776Z,18.35
2022-10-19T06:33:48.522Z,18.60
2022-10-19T06:36:21.449Z,13.70
2022-10-19T06:38:48.814Z,17.55
2022-10-19T06:41:15.484Z,18.73
2022-10-19T06:43:42.030Z,16.45
2022-10-19T06:46:11.391Z,16.98
2022-10-19T06:48:37.945Z,14.43
2022-10-19T06:51:06.624Z,16.80
2022-10-19T06:53:34.003Z,17.57
2022-10-19T06:56:07.170Z,16.13
2022-10-19T06:58:38.230Z,24.52
2022-10-19T07:01:06.437Z,16.33
2022-10-19T07:03:33.326Z,22.92
2022-10-19T07:06:02.306Z,20.87
2022-10-19T07:08:30.542Z,15.68
2022-10-19T07:10:59.709Z,17.55
2022-10-19T07:13:27.655Z,16.88
2022-10-19T07:16:08.739Z,18.05
2022-10-19T07:18:36.410Z,20.13
2022-10-19T07:21:05.958Z,16.38
2022-10-19T07:23:34.433Z,16.27
2022-10-19T07:26:08.858Z,17.23
2022-10-19T07:28:35.631Z,17.92
2022-10-19T07:31:10.778Z,18.77
2022-10-19T07:33:37.696Z,17.95
2022-10-19T07:36:07.435Z,17.77
2022-10-19T07:38:34.982Z,17.50
2022-10-19T07:41:07.961Z,14.50
2022-10-19T07:43:34.901Z,21.17
2022-10-19T07:46:07.027Z,17.88
2022-10-19T07:48:34.656Z,13.65
2022-10-19T07:51:02.971Z,17.13
2022-10-19T07:53:29.423Z,14.63
2022-10-19T07:55:56.220Z,14.70
2022-10-19T07:58:22.752Z,15.00
2022-10-19T08:00:49.138Z,13.93
2022-10-19T08:06:11.300Z,13.88
2022-10-19T08:08:38.514Z,16.73
2022-10-19T08:11:08.171Z,12.27
2022-10-19T08:13:34.791Z,15.30
2022-10-19T08:16:01.532Z,15.40
2022-10-19T08:18:27.985Z,14.93
2022-10-19T08:20:54.404Z,14.60
2022-10-19T08:23:20.807Z,13.23
2022-10-19T08:25:47.239Z,13.52
2022-10-19T08:28:13.699Z,14.75
2022-10-19T08:30:40.152Z,13.48
2022-10-19T08:33:06.584Z,13.27
2022-10-19T08:35:33.102Z,14.73
2022-10-19T08:38:02.104Z,12.32
2022-10-19T08:40:30.923Z,15.18
2022-10-19T08:43:16.066Z,14.85
2022-10-19T08:46:01.151Z,14.17
2022-10-19T08:48:29.814Z,13.07
2022-10-19T08:50:58.092Z,15.63
2022-10-19T08:53:33.541Z,16.33
2022-10-19T08:56:45.966Z,11.98
2022-10-19T08:59:46.342Z,9.83
2022-10-19T09:02:22.340Z,14.35
2022-10-19T09:05:01.640Z,12.20
2022-10-19T09:07:32.868Z,12.40
2022-10-19T09:10:14.540Z,10.85
2022-10-19T09:13:01.608Z,13.70
2022-10-19T09:15:42.854Z,11.00
2022-10-19T09:18:24.313Z,9.45
2022-10-19T09:21:09.119Z,10.25
2022-10-19T09:23:39.987Z,12.63
2022-10-19T09:26:18.341Z,11.43
2022-10-19T09:28:54.867Z,14.55
2022-10-19T09:31:40.476Z,12.63
2022-10-19T09:34:15.540Z,13.15
2022-10-19T09:36:50.353Z,12.88
2022-10-19T09:39:18.108Z,13.93
2022-10-19T09:41:51.668Z,13.15
2022-10-19T09:44:18.152Z,10.40
2022-10-19T09:46:51.341Z,16.25
2022-10-19T09:49:39.018Z,12.52
2022-10-19T09:52:05.814Z,15.13
2022-10-19T09:54:37.657Z,12.68
2022-10-19T09:57:05.214Z,11.10
2022-10-19T09:59:36.896Z,13.85
2022-10-19T10:02:14.744Z,11.93
2022-10-19T10:04:41.346Z,10.30
2022-10-19T10:07:15.180Z,12.18
2022-10-19T10:09:43.293Z,10.95
2022-10-19T10:12:09.772Z,11.10
2022-10-19T10:14:36.585Z,12.65
2022-10-19T10:17:06.867Z,12.20
2022-10-19T10:19:34.501Z,11.23
2022-10-19T10:22:04.084Z,9.23
2022-10-19T10:24:33.127Z,9.80
2022-10-19T10:27:03.059Z,11.13
2022-10-19T10:29:36.127Z,12.40
2022-10-19T10:32:20.339Z,11.70
2022-10-19T10:35:06.170Z,13.52
2022-10-19T10:37:39.983Z,12.50
2022-10-19T10:40:28.342Z,12.18
2022-10-19T10:42:57.793Z,11.77
2022-10-19T10:45:29.320Z,8.98
2022-10-19T10:47:57.686Z,11.35
2022-10-19T10:50:31.514Z,10.13
2022-10-19T10:53:01.012Z,12.65
2022-10-19T10:55:29.349Z,11.17
2022-10-19T10:58:18.119Z,10.48
2022-10-19T11:00:45.679Z,12.30
2022-10-19T11:03:26.648Z,11.00
2022-10-19T11:05:57.471Z,11.75
2022-10-19T11:08:31.944Z,10.33
2022-10-19T11:11:36.375Z,9.50
2022-10-19T11:14:36.656Z,9.65
2022-10-19T11:17:15.546Z,11.18
2022-10-19T11:19:44.135Z,10.77
2022-10-19T11:22:35.258Z,10.50
2022-10-19T11:25:28.321Z,10.05
2022-10-19T11:28:05.085Z,9.18
2022-10-19T11:30:42.505Z,8.75
2022-10-19T11:33:32.851Z,10.80
2022-10-19T11:36:04.008Z,10.27
2022-10-19T11:38:51.868Z,8.70
2022-10-19T11:41:27.362Z,9.85
2022-10-19T11:44:16.363Z,10.00
2022-10-19T11:47:04.519Z,9.55
2022-10-19T11:49:47.027Z,9.80
2022-10-19T11:52:20.442Z,8.45
2022-10-19T11:55:07.965Z,9.23
2022-10-19T11:57:51.317Z,9.15
2022-10-19T12:00:38.236Z,9.30
2022-10-19T12:03:17.452Z,12.40
2022-10-19T12:05:43.839Z,8.50
2022-10-19T12:08:21.078Z,10.20
2022-10-19T12:10:53.253Z,12.63
2022-10-19T12:13:25.971Z,9.13
2022-10-19T12:15:54.176Z,9.37
2022-10-19T12:18:26.472Z,9.90
2022-10-19T12:20:57.082Z,12.05
2022-10-19T12:23:36.294Z,9.80
2022-10-19T12:26:06.286Z,10.70
2022-10-19T12:28:36.635Z,11.97
2022-10-19T12:31:04.833Z,10.57
2022-10-19T12:34:10.062Z,8.30
2022-10-19T12:37:05.807Z,7.07
2022-10-19T12:39:57.208Z,10.82
2022-10-19T12:42:55.974Z,11.47
2022-10-19T12:45:35.861Z,10.20
2022-10-19T12:48:08.211Z,10.35
2022-10-19T12:50:49.917Z,10.25
2022-10-19T12:53:31.318Z,11.38
2022-10-19T12:56:05.691Z,9.00
2022-10-19T12:58:47.446Z,9.05
2022-10-19T13:01:35.878Z,11.05
2022-10-19T13:04:16.481Z,9.35
2022-10-19T13:06:46.098Z,9.40
2022-10-19T13:09:27.850Z,11.00
2022-10-19T13:12:21.539Z,8.52
2022-10-19T13:15:00.418Z,9.75
2022-10-19T13:17:36.142Z,9.77
2022-10-19T13:20:22.856Z,8.23
2022-10-19T13:23:12.534Z,9.60
2022-10-19T13:25:42.712Z,12.15
2022-10-19T13:28:09.121Z,8.85
2022-10-19T13:30:35.621Z,10.70
2022-10-19T13:33:23.810Z,10.85
2022-10-19T13:35:59.316Z,9.83
2022-10-19T13:38:59.385Z,10.68
2022-10-19T13:41:47.580Z,7.82
2022-10-19T13:44:20.286Z,10.45
2022-10-19T13:47:23.462Z,8.82
2022-10-19T13:50:07.596Z,8.10
2022-10-19T13:52:51.221Z,9.75
2022-10-19T13:55:51.786Z,9.48
2022-10-19T13:58:43.406Z,7.75
2022-10-19T14:01:48.688Z,8.77
2022-10-19T14:04:19.292Z,10.13
2022-10-19T14:07:00.869Z,11.68
2022-10-19T14:09:40.530Z,7.88
2022-10-19T14:12:23.850Z,10.43
2022-10-19T14:14:51.199Z,10.88
2022-10-19T14:17:23.157Z,9.67
2022-10-19T14:19:52.871Z,11.43
2022-10-19T14:22:29.925Z,10.05
2022-10-19T14:25:04.601Z,11.15
2022-10-19T14:27:31.579Z,12.38
2022-10-19T14:29:58.387Z,11.57
2022-10-19T14:32:28.956Z,11.18
2022-10-19T14:37:36.939Z,7.65
2022-10-19T14:40:26.515Z,10.77
2022-10-19T14:42:55.575Z,13.07
2022-10-19T14:45:30.723Z,9.82
2022-10-19T14:48:02.707Z,11.50
2022-10-19T14:50:41.444Z,8.80
2022-10-19T14:53:32.598Z,9.00
2022-10-19T14:56:06.411Z,9.47
2022-10-19T14:58:40.028Z,13.77
2022-10-19T15:01:07.390Z,9.80
2022-10-19T15:03:34.356Z,10.57
2022-10-19T15:06:06.322Z,11.07
2022-10-19T15:08:39.747Z,11.10
2022-10-19T15:11:07.047Z,11.90
2022-10-19T15:13:41.221Z,11.90
2022-10-19T15:16:29.361Z,10.75
2022-10-19T15:18:55.887Z,14.00
2022-10-19T15:21:22.543Z,11.37
2022-10-19T15:23:53.105Z,10.57
2022-10-19T15:26:25.479Z,11.18
2022-10-19T15:28:53.013Z,12.85
2022-10-19T15:31:28.586Z,10.30
2022-10-19T15:33:57.988Z,12.00
2022-10-19T15:36:25.417Z,12.57
2022-10-19T15:39:06.173Z,11.85
2022-10-19T15:41:44.248Z,10.32
2022-10-19T15:44:47.466Z,13.35
2022-10-19T15:47:17.046Z,10.23
2022-10-19T15:49:43.371Z,11.27
2022-10-19T15:52:25.269Z,13.25
2022-10-19T15:54:53.882Z,12.18
2022-10-19T15:57:27.561Z,12.32
2022-10-19T15:59:55.749Z,16.37
2022-10-19T16:02:22.805Z,11.23
2022-10-19T16:04:49.209Z,10.93
2022-10-19T16:07:22.914Z,11.35
2022-10-19T16:09:49.314Z,10.40
2022-10-19T16:12:15.762Z,12.63
2022-10-19T16:14:42.142Z,11.70
2022-10-19T16:17:12.264Z,14.77
2022-10-19T16:19:38.811Z,11.50
2022-10-19T16:22:05.487Z,12.00
2022-10-19T16:24:32.102Z,12.20
2022-10-19T16:26:58.685Z,13.00
2022-10-19T16:29:28.217Z,13.02
2022-10-19T16:31:55.687Z,11.43
2022-10-19T16:34:22.141Z,11.25
2022-10-19T16:36:48.563Z,10.97
2022-10-19T16:39:15.002Z,11.48
2022-10-19T16:41:41.417Z,12.90
2022-10-19T16:44:11.674Z,12.52
2022-10-19T16:46:38.535Z,13.27
2022-10-19T16:49:05.104Z,12.50
2022-10-19T16:51:39.886Z,13.52
2022-10-19T16:54:08.896Z,14.05
2022-10-19T16:56:36.480Z,15.07
2022-10-19T16:59:05.954Z,14.27
2022-10-19T17:01:34.554Z,11.60
2022-10-19T17:04:01.619Z,12.43
2022-10-19T17:06:28.381Z,11.52
2022-10-19T17:11:45.342Z,13.55
2022-10-19T17:14:12.671Z,12.83
2022-10-19T17:16:39.949Z,12.57
2022-10-19T17:19:08.418Z,13.13
2022-10-19T17:21:36.481Z,13.73
2022-10-19T17:24:03.263Z,14.60
2022-10-19T17:26:38.986Z,14.17
2022-10-19T17:29:06.724Z,14.88
2022-10-19T17:31:33.359Z,14.73
2022-10-19T17:34:00.006Z,15.18
2022-10-19T17:36:31.915Z,14.32
2022-10-19T17:39:00.866Z,13.43
2022-10-19T17:41:28.450Z,15.18
2022-10-19T17:43:55.510Z,15.63
2022-10-19T17:46:25.898Z,15.02
2022-10-19T17:48:52.346Z,15.68
2022-10-19T17:51:21.752Z,14.77
2022-10-19T17:53:49.081Z,15.55
2022-10-19T17:56:18.135Z,13.93
2022-10-19T17:58:44.923Z,14.27
2022-10-19T18:01:12.311Z,13.68
2022-10-19T18:03:39.845Z,14.50
2022-10-19T18:06:10.795Z,15.05
2022-10-19T18:08:40.581Z,13.00
2022-10-19T18:11:17.476Z,13.65
2022-10-19T18:13:44.081Z,13.55
2022-10-19T18:16:23.107Z,12.40
2022-10-19T18:18:53.025Z,12.95
2022-10-19T18:21:22.648Z,14.43
2022-10-19T18:23:49.123Z,13.52
2022-10-19T18:26:19.191Z,14.93
2022-10-19T18:28:46.339Z,15.83
2022-10-19T18:31:18.566Z,13.63
2022-10-19T18:33:46.664Z,15.65
2022-10-19T18:36:13.366Z,14.05
2022-10-19T18:38:39.987Z,12.95
2022-10-19T18:41:09.555Z,14.17
2022-10-19T18:43:36.065Z,16.13
2022-10-19T18:46:02.496Z,13.00
2022-10-19T18:48:29.775Z,15.80
2022-10-19T18:50:57.598Z,12.88
2022-10-19T18:53:24.358Z,12.03
2022-10-19T18:56:05.731Z,15.82
2022-10-19T18:58:33.451Z,16.02
2022-10-19T19:01:04.367Z,14.50
2022-10-19T19:03:31.471Z,13.35
2022-10-19T19:06:10.953Z,13.80
2022-10-19T19:08:37.594Z,14.10
2022-10-19T19:11:16.734Z,15.48
2022-10-19T19:13:49.196Z,13.10
2022-10-19T19:16:15.654Z,16.02
2022-10-19T19:18:42.094Z,15.40
2022-10-19T19:21:24.599Z,15.85
2022-10-19T19:23:52.204Z,15.85
2022-10-19T19:26:20.518Z,14.40
2022-10-19T19:28:49.076Z,13.57
2022-10-19T19:31:19.000Z,14.00
2022-10-19T19:33:46.783Z,13.63
2022-10-19T19:36:15.077Z,16.80
2022-10-19T19:38:42.200Z,15.48
2022-10-19T19:41:12.526Z,16.13
2022-10-19T19:43:39.695Z,15.03
2022-10-19T19:46:09.273Z,12.68
2022-10-19T19:48:36.709Z,13.80
2022-10-19T19:51:03.312Z,15.20
2022-10-19T19:53:29.760Z,16.23
2022-10-19T19:55:56.178Z,14.57
2022-10-19T19:58:22.665Z,15.57
2022-10-19T20:00:49.092Z,13.27
2022-10-19T20:03:15.486Z,13.95
2022-10-19T20:05:42.031Z,13.55
2022-10-19T20:08:08.716Z,12.70
2022-10-19T20:10:40.354Z,15.43
2022-10-19T20:13:06.924Z,14.27
2022-10-19T20:15:33.394Z,14.63
2022-10-19T20:17:59.894Z,15.48
2022-10-19T20:20:26.372Z,12.83
2022-10-19T20:22:52.834Z,14.23
2022-10-19T20:25:19.317Z,13.10
2022-10-19T20:27:45.730Z,14.75
2022-10-19T20:30:12.154Z,16.30
2022-10-19T20:32:38.855Z,13.77
2022-10-19T20:35:05.740Z,14.52
2022-10-19T20:37:32.128Z,13.82
2022-10-19T20:39:58.602Z,14.38
2022-10-19T20:42:25.157Z,14.07
2022-10-19T20:44:51.662Z,14.07
2022-10-19T20:47:18.201Z,16.02
2022-10-19T20:49:44.661Z,13.35
2022-10-19T20:52:11.103Z,14.20
2022-10-19T20:54:37.550Z,14.20
2022-10-19T20:57:04.042Z,17.37
2022-10-19T20:59:30.503Z,14.73
2022-10-19T21:01:57.599Z,14.52
2022-10-19T21:04:24.834Z,15.52
2022-10-19T21:06:51.954Z,12.35
2022-10-19T21:09:21.674Z,15.50
2022-10-19T21:11:50.153Z,16.95
2022-10-19T21:14:28.775Z,17.15
2022-10-19T21:16:57.430Z,15.18
2022-10-19T21:19:25.610Z,14.45
2022-10-19T21:21:55.299Z,17.90
2022-10-19T21:24:24.004Z,16.55
2022-10-19T21:29:21.977Z,15.93
2022-10-19T21:31:52.078Z,16.65
2022-10-19T21:34:21.338Z,15.40
2022-10-19T21:36:48.701Z,18.10
2022-10-19T21:39:15.425Z,15.20
2022-10-19T21:41:41.854Z,17.35
2022-10-19T21:44:08.713Z,15.30
2022-10-19T21:46:35.239Z,14.80
2022-10-19T21:49:01.679Z,17.42
2022-10-19T21:51:47.808Z,16.77
2022-10-19T21:54:16.665Z,18.38
2022-10-19T21:56:44.252Z,18.63
2022-10-19T21:59:11.009Z,16.30
2022-10-19T22:01:40.403Z,17.98
2022-10-19T22:04:11.892Z,15.32
2022-10-19T22:06:38.385Z,15.98
2022-10-19T22:09:07.445Z,17.88
2022-10-19T22:11:34.430Z,16.73
2022-10-19T22:14:02.858Z,17.27
2022-10-19T22:16:30.512Z,18.27
2022-10-19T22:18:57.535Z,19.88
2022-10-19T22:21:27.118Z,16.80
2022-10-19T22:23:55.902Z,18.00
2022-10-19T22:26:25.759Z,18.35
2022-10-19T22:28:52.897Z,21.20
2022-10-19T22:31:19.377Z,21.20
2022-10-19T22:33:45.851Z,20.55
2022-10-19T22:36:13.196Z,17.57
2022-10-19T22:38:40.506Z,18.50
2022-10-19T22:41:44.661Z,21.05
2022-10-19T22:44:11.213Z,20.42
2022-10-19T22:46:37.683Z,20.50
2022-10-19T22:49:04.292Z,18.57
2022-10-19T22:51:30.812Z,19.85
2022-10-19T22:53:57.250Z,20.70
2022-10-19T22:56:23.746Z,20.80
2022-10-19T22:58:50.166Z,17.63
2022-10-19T23:01:17.070Z,20.03
2022-10-19T23:03:43.929Z,19.70
2022-10-19T23:06:12.804Z,19.92
2022-10-19T23:08:39.396Z,19.75
2022-10-19T23:11:05.993Z,21.45
2022-10-19T23:13:32.430Z,17.90
2022-10-19T23:15:58.980Z,21.13
2022-10-19T23:18:25.652Z,21.30
2022-10-19T23:21:04.515Z,20.83
2022-10-19T23:23:33.110Z,22.92
2022-10-19T23:26:07.336Z,21.77
2022-10-19T23:28:35.814Z,22.85
2022-10-19T23:31:08.577Z,20.98
2022-10-19T23:33:35.583Z,22.75
2022-10-19T23:36:16.289Z,22.67
2022-10-19T23:38:44.387Z,19.03
2022-10-19T23:41:12.288Z,18.50
2022-10-19T23:43:39.375Z,24.48
2022-10-19T23:46:06.492Z,21.45
2022-10-19T23:48:32.989Z,23.65
2022-10-19T23:51:02.179Z,24.13
2022-10-19T23:53:30.138Z,22.50
2022-10-19T23:56:06.132Z,25.38
2022-10-19T23:58:33.356Z,23.58
